Terminal Aerodrome Forecast
Issued by NWS

Home | Current Version | Previous Version | Text Only | Print | Product List | Glossary On
Versions: 1 2 3 4 5 6 7 8 9 10 11 12 13 14 15 16 17 18 19 20
000
FTUS43 KJKL 300109 AAA
TAFSME
TAF AMD
KSME 300109Z 3001/3024 VRB06KT P6SM VCTS SCT035CB
     FM300130 34010G25KT 3SM TSRA BR BKN035CB
     FM300200 VRB03KT P6SM RA VCTS SCT035 BKN050CB
     FM300230 VRB03KT P6SM VCTS BKN035CB
     FM300500 VRB03KT 2SM BR VCSH OVC025
     FM301500 36007KT P6SM SCT030=

USA.gov is the U.S. government's official web portal to all federal, state and local government web resources and services.